createdAt,value
2023-02-19T00:01:26.777Z,11.39
2023-02-19T00:04:00.227Z,11.57
2023-02-19T00:06:28.976Z,11.55
2023-02-19T00:08:56.511Z,11.47
2023-02-19T00:11:27.243Z,11.68
2023-02-19T00:13:55.743Z,11.77
2023-02-19T00:16:28.202Z,11.87
2023-02-19T00:18:56.284Z,12.13
2023-02-19T00:21:23.992Z,12.06
2023-02-19T00:23:51.997Z,12.21
2023-02-19T00:26:19.098Z,12.36
2023-02-19T00:28:47.071Z,12.42
2023-02-19T00:31:17.168Z,12.36
2023-02-19T00:33:44.333Z,12.46
2023-02-19T00:36:11.042Z,12.64
2023-02-19T00:38:38.773Z,12.71
2023-02-19T00:41:19.084Z,12.77
2023-02-19T00:43:48.381Z,12.74
2023-02-19T00:46:20.664Z,12.78
2023-02-19T00:48:47.839Z,12.68
2023-02-19T00:51:14.840Z,12.87
2023-02-19T00:53:41.951Z,12.84
2023-02-19T00:56:09.142Z,12.87
2023-02-19T00:58:35.921Z,12.91
2023-02-19T01:01:02.731Z,12.82
2023-02-19T01:03:29.452Z,12.80
2023-02-19T01:05:56.143Z,12.93
2023-02-19T01:08:23.063Z,13.00
2023-02-19T01:10:49.739Z,13.06
2023-02-19T01:13:17.257Z,13.08
2023-02-19T01:15:44.012Z,13.13
2023-02-19T01:18:11.858Z,12.88
2023-02-19T01:20:40.830Z,13.00
2023-02-19T01:23:07.768Z,12.92
2023-02-19T01:25:34.762Z,12.97
2023-02-19T01:28:01.405Z,13.00
2023-02-19T01:30:28.104Z,12.85
2023-02-19T01:32:54.712Z,12.85
2023-02-19T01:35:21.363Z,12.54
2023-02-19T01:37:47.981Z,12.24
2023-02-19T01:40:14.606Z,12.13
2023-02-19T01:42:44.341Z,12.24
2023-02-19T01:45:25.259Z,11.91
2023-02-19T01:48:04.227Z,12.07
2023-02-19T01:50:37.152Z,12.28
2023-02-19T01:53:07.250Z,12.39
2023-02-19T01:55:35.271Z,12.35
2023-02-19T01:58:03.210Z,12.48
2023-02-19T02:00:30.804Z,12.36
2023-02-19T02:02:58.820Z,12.32
2023-02-19T02:05:38.707Z,12.43
2023-02-19T02:08:24.072Z,12.26
2023-02-19T02:10:52.499Z,11.93
2023-02-19T02:13:19.423Z,11.89
2023-02-19T02:15:58.541Z,11.91
2023-02-19T02:18:49.574Z,11.90
2023-02-19T02:21:30.239Z,12.02
2023-02-19T02:24:05.775Z,11.86
2023-02-19T02:26:40.985Z,11.51
2023-02-19T02:29:27.853Z,11.66
2023-02-19T02:32:01.340Z,11.73
2023-02-19T02:34:35.356Z,11.72
2023-02-19T02:37:03.598Z,11.41
2023-02-19T02:39:32.525Z,10.76
2023-02-19T02:42:18.648Z,10.35
2023-02-19T02:45:04.074Z,10.70
2023-02-19T02:47:44.707Z,10.41
2023-02-19T02:50:40.996Z,10.52
2023-02-19T02:53:41.946Z,10.36
2023-02-19T02:56:11.119Z,10.28
2023-02-19T02:58:38.570Z,10.46
2023-02-19T03:01:42.153Z,10.17
2023-02-19T03:04:32.535Z,10.28
2023-02-19T03:07:03.725Z,10.21
2023-02-19T03:09:40.640Z,10.45
2023-02-19T03:12:33.064Z,10.34
2023-02-19T03:15:24.171Z,10.33
2023-02-19T03:18:18.883Z,10.37
2023-02-19T03:20:51.791Z,10.32
2023-02-19T03:23:20.715Z,10.39
2023-02-19T03:26:06.274Z,10.40
2023-02-19T03:28:54.791Z,10.32
2023-02-19T03:31:25.185Z,10.19
2023-02-19T03:33:56.604Z,10.33
2023-02-19T03:36:27.315Z,10.38
2023-02-19T03:39:07.274Z,10.27
2023-02-19T03:41:39.782Z,10.40
2023-02-19T03:44:37.444Z,10.38
2023-02-19T03:47:22.151Z,10.35
2023-02-19T03:50:08.307Z,10.46
2023-02-19T03:52:40.957Z,10.30
2023-02-19T03:55:13.013Z,10.36
2023-02-19T03:57:50.063Z,10.33
2023-02-19T04:00:20.832Z,10.28
2023-02-19T04:02:57.540Z,10.46
2023-02-19T04:05:30.581Z,10.35
2023-02-19T04:08:08.943Z,10.53
2023-02-19T04:10:37.133Z,10.51
2023-02-19T04:13:11.995Z,10.51
2023-02-19T04:15:41.834Z,10.47
2023-02-19T04:18:16.061Z,10.34
2023-02-19T04:20:45.382Z,10.46
2023-02-19T04:23:14.724Z,10.50
2023-02-19T04:25:45.574Z,10.60
2023-02-19T04:28:14.992Z,10.54
2023-02-19T04:30:41.906Z,10.54
2023-02-19T04:33:08.567Z,10.40
2023-02-19T04:35:35.244Z,10.41
2023-02-19T04:38:01.886Z,10.34
2023-02-19T04:40:28.502Z,10.37
2023-02-19T04:42:55.614Z,10.49
2023-02-19T04:45:22.242Z,10.55
2023-02-19T04:47:48.855Z,10.52
2023-02-19T04:50:15.574Z,10.00
2023-02-19T04:52:42.192Z,10.02
2023-02-19T04:55:09.097Z,9.93
2023-02-19T04:57:35.991Z,9.59
2023-02-19T05:00:03.071Z,9.35
2023-02-19T05:02:29.698Z,9.31
2023-02-19T05:04:56.329Z,9.32
2023-02-19T05:07:22.923Z,9.13
2023-02-19T05:09:49.550Z,9.05
2023-02-19T05:12:16.139Z,9.03
2023-02-19T05:14:42.765Z,8.92
2023-02-19T05:17:09.364Z,8.73
2023-02-19T05:19:35.969Z,8.83
2023-02-19T05:22:02.603Z,8.68
2023-02-19T05:24:30.023Z,8.68
2023-02-19T05:26:56.650Z,8.57
2023-02-19T05:29:23.559Z,8.65
2023-02-19T05:31:50.220Z,8.75
2023-02-19T05:34:16.887Z,8.71
2023-02-19T05:36:43.754Z,8.69
2023-02-19T05:39:12.399Z,8.48
2023-02-19T05:41:39.457Z,8.47
2023-02-19T05:44:06.077Z,8.51
2023-02-19T05:46:32.888Z,8.43
2023-02-19T05:48:59.773Z,8.37
2023-02-19T05:51:27.481Z,8.37
2023-02-19T05:53:54.166Z,8.33
2023-02-19T05:56:23.514Z,8.29
2023-02-19T05:58:50.142Z,8.23
2023-02-19T06:01:17.821Z,8.22
2023-02-19T06:03:44.459Z,8.21
2023-02-19T06:06:15.754Z,8.17
2023-02-19T06:08:42.507Z,8.06
2023-02-19T06:11:09.705Z,8.11
2023-02-19T06:13:36.510Z,8.05
2023-02-19T06:16:07.744Z,8.04
2023-02-19T06:18:35.090Z,7.89
2023-02-19T06:21:06.928Z,7.91
2023-02-19T06:23:34.130Z,7.83
2023-02-19T06:26:22.200Z,7.84
2023-02-19T06:28:51.218Z,7.81
2023-02-19T06:31:19.668Z,7.76
2023-02-19T06:33:46.864Z,7.75
2023-02-19T06:36:16.121Z,7.71
2023-02-19T06:38:43.331Z,7.63
2023-02-19T06:41:11.449Z,7.63
2023-02-19T06:43:38.636Z,7.66
2023-02-19T06:46:07.156Z,7.63
2023-02-19T06:48:34.439Z,7.65
2023-02-19T06:51:01.318Z,7.61
2023-02-19T06:53:27.968Z,7.64
2023-02-19T06:56:07.661Z,7.72
2023-02-19T06:58:34.662Z,7.70
2023-02-19T07:01:01.662Z,7.67
2023-02-19T07:03:28.564Z,7.56
2023-02-19T07:05:55.305Z,7.46
2023-02-19T07:08:21.975Z,7.48
2023-02-19T07:10:56.510Z,7.51
2023-02-19T07:13:24.504Z,7.47
2023-02-19T07:15:52.192Z,7.46
2023-02-19T07:18:19.553Z,7.49
2023-02-19T07:20:46.265Z,7.53
2023-02-19T07:23:12.884Z,7.51
2023-02-19T07:25:39.854Z,7.42
2023-02-19T07:28:07.324Z,7.42
2023-02-19T07:30:34.170Z,7.43
2023-02-19T07:33:01.382Z,7.46
2023-02-19T07:35:28.045Z,7.49
2023-02-19T07:37:54.927Z,7.53
2023-02-19T07:40:21.591Z,7.54
2023-02-19T07:42:48.207Z,7.59
2023-02-19T07:45:14.992Z,7.59
2023-02-19T07:47:41.599Z,7.58
2023-02-19T07:50:08.382Z,7.69
2023-02-19T07:52:35.057Z,7.65
2023-02-19T07:55:01.751Z,7.76
2023-02-19T07:57:29.654Z,7.77
2023-02-19T07:59:56.350Z,7.74
2023-02-19T08:02:41.708Z,7.84
2023-02-19T08:05:08.469Z,7.87
2023-02-19T08:07:36.463Z,7.83
2023-02-19T08:10:43.114Z,7.82
2023-02-19T08:13:22.665Z,7.88
2023-02-19T08:15:49.365Z,7.88
2023-02-19T08:18:17.264Z,7.94
2023-02-19T08:20:44.614Z,8.01
2023-02-19T08:23:11.979Z,8.06
2023-02-19T08:25:40.089Z,8.15
2023-02-19T08:28:08.427Z,8.23
2023-02-19T08:30:38.319Z,8.32
2023-02-19T08:33:07.000Z,8.35
2023-02-19T08:35:36.543Z,8.32
2023-02-19T08:38:04.580Z,8.35
2023-02-19T08:40:31.597Z,8.41
2023-02-19T08:43:09.999Z,8.38
2023-02-19T08:45:44.995Z,8.34
2023-02-19T08:48:12.349Z,8.34
2023-02-19T08:50:39.169Z,8.34
2023-02-19T08:53:07.028Z,8.36
2023-02-19T08:55:33.828Z,8.31
2023-02-19T08:58:00.708Z,8.34
2023-02-19T09:00:27.541Z,8.41
2023-02-19T09:02:54.126Z,8.50
2023-02-19T09:05:20.808Z,8.54
2023-02-19T09:07:47.407Z,8.66
2023-02-19T09:10:14.610Z,8.72
2023-02-19T09:12:41.561Z,8.79
2023-02-19T09:15:08.740Z,8.74
2023-02-19T09:17:35.497Z,8.82
2023-02-19T09:20:02.268Z,8.70
2023-02-19T09:22:28.880Z,8.73
2023-02-19T09:24:55.597Z,8.71
2023-02-19T09:27:22.221Z,8.77
2023-02-19T09:29:48.818Z,8.82
2023-02-19T09:32:17.106Z,8.74
2023-02-19T09:34:44.657Z,8.77
2023-02-19T09:37:11.263Z,8.72
2023-02-19T09:39:38.211Z,8.71
2023-02-19T09:42:15.363Z,8.32
2023-02-19T09:44:45.558Z,8.13
2023-02-19T09:47:24.092Z,7.90
2023-02-19T09:49:54.497Z,7.73
2023-02-19T09:52:42.864Z,7.63
2023-02-19T09:55:16.976Z,7.62
2023-02-19T09:57:45.983Z,7.79
2023-02-19T10:00:12.889Z,7.81
2023-02-19T10:02:39.738Z,7.87
2023-02-19T10:05:16.970Z,7.93
2023-02-19T10:07:49.253Z,8.03
2023-02-19T10:10:15.801Z,7.92
2023-02-19T10:12:51.281Z,7.93
2023-02-19T10:15:32.260Z,8.10
2023-02-19T10:17:59.190Z,8.22
2023-02-19T10:20:28.009Z,8.15
2023-02-19T10:23:07.377Z,8.30
2023-02-19T10:25:35.238Z,8.31
2023-02-19T10:28:03.173Z,8.38
2023-02-19T10:30:35.795Z,8.49
2023-02-19T10:33:14.231Z,8.48
2023-02-19T10:35:56.170Z,8.43
2023-02-19T10:38:40.816Z,8.50
2023-02-19T10:41:18.807Z,8.51
2023-02-19T10:44:14.559Z,8.59
2023-02-19T10:46:44.164Z,8.79
2023-02-19T10:49:24.770Z,8.84
2023-02-19T10:51:53.606Z,8.87
2023-02-19T10:54:26.623Z,8.89
2023-02-19T10:56:54.189Z,9.01
2023-02-19T10:59:29.007Z,9.07
2023-02-19T11:01:57.454Z,8.93
2023-02-19T11:04:26.046Z,9.07
2023-02-19T11:06:53.148Z,9.24
2023-02-19T11:09:37.571Z,8.92
2023-02-19T11:12:05.831Z,8.93
2023-02-19T11:14:34.206Z,8.87
2023-02-19T11:17:05.618Z,8.78
2023-02-19T11:19:40.362Z,8.83
2023-02-19T11:22:39.158Z,8.66
2023-02-19T11:25:14.744Z,8.50
2023-02-19T11:28:08.239Z,8.54
2023-02-19T11:30:36.862Z,8.49
2023-02-19T11:33:27.376Z,8.54
2023-02-19T11:36:00.715Z,8.42
2023-02-19T11:38:27.300Z,8.50
2023-02-19T11:41:11.379Z,8.71
2023-02-19T11:43:50.224Z,9.11
2023-02-19T11:46:28.985Z,9.38
2023-02-19T11:49:17.811Z,9.39
2023-02-19T11:52:12.637Z,9.39
2023-02-19T11:55:09.008Z,9.54
2023-02-19T11:57:45.782Z,9.47
2023-02-19T12:00:28.737Z,9.33
2023-02-19T12:03:25.343Z,9.72
2023-02-19T12:06:19.764Z,9.79
2023-02-19T12:09:14.460Z,9.98
2023-02-19T12:11:53.663Z,9.87
2023-02-19T12:14:51.868Z,9.76
2023-02-19T12:17:39.070Z,9.89
2023-02-19T12:20:14.771Z,10.10
2023-02-19T12:22:55.053Z,10.15
2023-02-19T12:25:27.558Z,10.67
2023-02-19T12:28:15.176Z,11.27
2023-02-19T12:31:08.320Z,11.60
2023-02-19T12:33:44.095Z,11.35
2023-02-19T12:36:23.104Z,11.70
2023-02-19T12:39:13.562Z,11.34
2023-02-19T12:41:51.953Z,11.08
2023-02-19T12:44:39.003Z,11.16
2023-02-19T12:47:07.317Z,11.17
2023-02-19T12:49:39.586Z,11.51
2023-02-19T12:52:21.357Z,11.74
2023-02-19T12:54:55.686Z,11.90
2023-02-19T12:57:30.271Z,12.01
2023-02-19T13:00:07.581Z,11.81
2023-02-19T13:02:44.125Z,11.83
2023-02-19T13:05:32.813Z,11.63
2023-02-19T13:08:02.876Z,11.66
2023-02-19T13:10:35.706Z,11.65
2023-02-19T13:13:08.004Z,11.67
2023-02-19T13:15:39.162Z,11.38
2023-02-19T13:18:15.239Z,11.29
2023-02-19T13:20:44.472Z,11.07
2023-02-19T13:23:40.475Z,10.83
2023-02-19T13:26:31.607Z,10.39
2023-02-19T13:29:32.202Z,10.50
2023-02-19T13:32:43.832Z,10.41
2023-02-19T13:35:51.826Z,10.27
2023-02-19T13:38:18.988Z,10.37
2023-02-19T13:40:57.129Z,10.82
2023-02-19T13:43:28.107Z,11.39
2023-02-19T13:46:00.701Z,11.35
2023-02-19T13:48:31.734Z,11.48
2023-02-19T13:51:13.636Z,11.35
2023-02-19T13:53:45.905Z,11.38
2023-02-19T13:56:44.727Z,11.09
2023-02-19T13:59:11.285Z,10.80
2023-02-19T14:01:50.306Z,10.50
2023-02-19T14:04:24.700Z,10.00
2023-02-19T14:07:03.369Z,9.72
2023-02-19T14:09:43.879Z,9.49
2023-02-19T14:12:10.490Z,9.59
2023-02-19T14:14:45.188Z,9.95
2023-02-19T14:17:31.051Z,10.19
2023-02-19T14:20:17.128Z,10.15
2023-02-19T14:22:52.857Z,10.05
2023-02-19T14:25:32.327Z,9.94
2023-02-19T14:28:01.725Z,9.67
2023-02-19T14:30:29.559Z,9.70
2023-02-19T14:33:09.683Z,9.38
2023-02-19T14:35:42.775Z,9.37
2023-02-19T14:38:21.446Z,9.42
2023-02-19T14:40:49.096Z,9.29
2023-02-19T14:43:18.872Z,9.14
2023-02-19T14:45:57.637Z,8.91
2023-02-19T14:48:39.776Z,9.16
2023-02-19T14:51:16.982Z,9.20
2023-02-19T14:53:45.318Z,9.15
2023-02-19T14:56:25.744Z,9.11
2023-02-19T14:59:07.730Z,9.14
2023-02-19T15:01:34.422Z,9.29
2023-02-19T15:04:01.116Z,9.46
2023-02-19T15:06:28.827Z,9.49
2023-02-19T15:09:00.169Z,9.24
2023-02-19T15:11:31.245Z,9.26
2023-02-19T15:14:01.527Z,9.19
2023-02-19T15:16:30.628Z,9.05
2023-02-19T15:18:58.991Z,9.07
2023-02-19T15:21:28.084Z,9.02
2023-02-19T15:24:03.019Z,9.10
2023-02-19T15:26:40.556Z,9.05
2023-02-19T15:29:12.658Z,8.98
2023-02-19T15:32:00.099Z,9.06
2023-02-19T15:34:29.165Z,8.79
2023-02-19T15:37:00.106Z,8.71
2023-02-19T15:39:33.397Z,8.65
2023-02-19T15:42:02.227Z,8.61
2023-02-19T15:44:28.799Z,8.59
2023-02-19T15:46:56.968Z,8.51
2023-02-19T15:49:33.419Z,8.54
2023-02-19T15:52:05.961Z,8.51
2023-02-19T15:54:36.608Z,8.34
2023-02-19T15:57:14.359Z,8.24
2023-02-19T15:59:45.058Z,8.28
2023-02-19T16:02:16.049Z,8.40
2023-02-19T16:04:44.459Z,8.31
2023-02-19T16:07:31.949Z,8.33
2023-02-19T16:10:17.114Z,8.36
2023-02-19T16:12:43.878Z,8.46
2023-02-19T16:15:20.366Z,8.55
2023-02-19T16:17:47.231Z,8.33
2023-02-19T16:20:21.607Z,8.38
2023-02-19T16:22:48.457Z,8.32
2023-02-19T16:25:29.416Z,8.32
2023-02-19T16:27:56.558Z,8.46
2023-02-19T16:30:33.974Z,8.34
2023-02-19T16:33:38.085Z,8.40
2023-02-19T16:36:23.241Z,8.12
2023-02-19T16:39:08.200Z,8.05
2023-02-19T16:41:47.645Z,8.02
2023-02-19T16:44:30.918Z,8.04
2023-02-19T16:47:03.149Z,8.04
2023-02-19T16:49:29.765Z,7.90
2023-02-19T16:51:58.661Z,7.92
2023-02-19T16:54:25.353Z,8.01
2023-02-19T16:56:51.983Z,8.08
2023-02-19T16:59:18.586Z,7.94
2023-02-19T17:01:45.233Z,7.89
2023-02-19T17:04:13.539Z,7.84
2023-02-19T17:06:40.515Z,7.88
2023-02-19T17:09:08.699Z,7.90
2023-02-19T17:11:36.365Z,7.78
2023-02-19T17:14:03.531Z,7.79
2023-02-19T17:16:34.382Z,7.78
2023-02-19T17:19:01.024Z,7.77
2023-02-19T17:21:30.285Z,7.79
2023-02-19T17:23:57.146Z,7.82
2023-02-19T17:26:26.917Z,7.96
2023-02-19T17:28:56.101Z,8.15
2023-02-19T17:31:22.925Z,8.19
2023-02-19T17:33:50.266Z,8.25
2023-02-19T17:36:20.346Z,8.31
2023-02-19T17:38:47.237Z,8.11
2023-02-19T17:41:13.908Z,8.00
2023-02-19T17:43:40.833Z,8.08
2023-02-19T17:46:07.486Z,8.04
2023-02-19T17:48:34.107Z,7.98
2023-02-19T17:51:00.692Z,8.02
2023-02-19T17:53:27.299Z,7.93
2023-02-19T17:55:53.921Z,7.83
2023-02-19T17:58:20.578Z,7.85
2023-02-19T18:00:47.419Z,7.72
2023-02-19T18:03:14.254Z,7.85
2023-02-19T18:05:40.848Z,7.68
2023-02-19T18:08:07.454Z,7.71
2023-02-19T18:10:34.122Z,7.59
2023-02-19T18:13:00.724Z,7.72
2023-02-19T18:15:27.601Z,7.83
2023-02-19T18:17:55.850Z,7.90
2023-02-19T18:20:28.328Z,7.81
2023-02-19T18:22:56.614Z,7.75
2023-02-19T18:25:23.698Z,7.82
2023-02-19T18:27:50.922Z,7.76
2023-02-19T18:30:19.603Z,7.68
2023-02-19T18:32:48.646Z,7.75
2023-02-19T18:35:19.717Z,7.68
2023-02-19T18:37:51.240Z,7.78
2023-02-19T18:40:18.820Z,7.81
2023-02-19T18:42:45.414Z,7.73
2023-02-19T18:45:12.193Z,7.72
2023-02-19T18:47:38.790Z,7.77
2023-02-19T18:50:08.351Z,7.80
2023-02-19T18:52:34.930Z,7.86
2023-02-19T18:55:01.531Z,7.76
2023-02-19T18:57:28.121Z,7.70
2023-02-19T18:59:54.745Z,7.67
2023-02-19T19:02:21.731Z,7.74
2023-02-19T19:04:51.215Z,7.71
2023-02-19T19:07:18.944Z,7.75
2023-02-19T19:09:45.644Z,7.66
2023-02-19T19:12:12.718Z,7.72
2023-02-19T19:14:39.467Z,7.67
2023-02-19T19:17:06.119Z,7.80
2023-02-19T19:19:32.766Z,7.80
2023-02-19T19:21:59.360Z,7.78
2023-02-19T19:24:26.055Z,7.86
2023-02-19T19:26:53.813Z,7.86
2023-02-19T19:29:22.217Z,7.91
2023-02-19T19:31:49.654Z,7.75
2023-02-19T19:34:17.124Z,7.87
2023-02-19T19:36:44.363Z,7.67
2023-02-19T19:39:11.491Z,7.79
2023-02-19T19:41:38.117Z,7.89
2023-02-19T19:44:06.117Z,7.84
2023-02-19T19:46:33.304Z,7.80
2023-02-19T19:49:00.255Z,7.89
2023-02-19T19:51:34.404Z,7.93
2023-02-19T19:54:03.212Z,7.90
2023-02-19T19:56:30.432Z,7.93
2023-02-19T19:58:57.106Z,7.94
2023-02-19T20:01:24.359Z,7.99
2023-02-19T20:03:51.273Z,7.83
2023-02-19T20:06:26.578Z,7.78
2023-02-19T20:08:53.237Z,7.89
2023-02-19T20:11:19.862Z,7.85
2023-02-19T20:13:46.642Z,7.86
2023-02-19T20:16:14.625Z,7.91
2023-02-19T20:18:41.675Z,7.81
2023-02-19T20:21:09.960Z,7.81
2023-02-19T20:23:39.464Z,7.73
2023-02-19T20:26:06.623Z,7.69
2023-02-19T20:28:33.401Z,7.77
2023-02-19T20:31:00.277Z,7.77
2023-02-19T20:33:26.925Z,7.82
2023-02-19T20:35:53.634Z,7.81
2023-02-19T20:38:20.264Z,7.66
2023-02-19T20:40:46.994Z,7.77
2023-02-19T20:43:13.620Z,7.82
2023-02-19T20:45:41.098Z,7.64
2023-02-19T20:48:07.751Z,7.61
2023-02-19T20:50:34.437Z,7.67
2023-02-19T20:53:01.263Z,7.68
2023-02-19T20:55:28.758Z,7.77
2023-02-19T20:57:55.370Z,7.79
2023-02-19T21:00:22.235Z,7.82
2023-02-19T21:02:48.909Z,7.87
2023-02-19T21:05:17.643Z,7.89
2023-02-19T21:07:44.303Z,7.88
2023-02-19T21:10:11.104Z,7.82
2023-02-19T21:12:37.753Z,7.70
2023-02-19T21:15:05.531Z,7.75
2023-02-19T21:17:32.321Z,7.73
2023-02-19T21:19:58.911Z,7.84
2023-02-19T21:22:25.563Z,8.03
2023-02-19T21:24:53.164Z,8.01
2023-02-19T21:27:20.593Z,8.07
2023-02-19T21:29:47.557Z,8.12
2023-02-19T21:32:14.588Z,8.19
2023-02-19T21:34:42.262Z,8.05
2023-02-19T21:37:08.876Z,8.07
2023-02-19T21:39:35.563Z,8.13
2023-02-19T21:42:02.584Z,7.95
2023-02-19T21:44:29.268Z,8.04
2023-02-19T21:46:56.126Z,7.99
2023-02-19T21:49:22.770Z,8.04
2023-02-19T21:51:50.310Z,7.99
2023-02-19T21:54:24.721Z,8.09
2023-02-19T21:56:52.873Z,7.87
2023-02-19T21:59:21.022Z,7.93
2023-02-19T22:01:48.705Z,8.07
2023-02-19T22:04:18.544Z,7.85
2023-02-19T22:06:45.292Z,7.89
2023-02-19T22:09:13.297Z,8.08
2023-02-19T22:11:40.197Z,8.22
2023-02-19T22:14:06.889Z,8.18
2023-02-19T22:16:33.504Z,8.25
2023-02-19T22:19:00.431Z,8.26
2023-02-19T22:21:32.456Z,8.09
2023-02-19T22:24:00.402Z,8.05
2023-02-19T22:26:33.629Z,8.03
2023-02-19T22:29:01.481Z,8.07
2023-02-19T22:31:28.633Z,8.18
2023-02-19T22:33:56.403Z,8.24
2023-02-19T22:36:25.890Z,8.33
2023-02-19T22:38:52.986Z,8.18
2023-02-19T22:41:20.982Z,8.25
2023-02-19T22:43:48.068Z,8.20
2023-02-19T22:46:20.395Z,8.11
2023-02-19T22:48:47.135Z,8.21
2023-02-19T22:51:15.742Z,7.97
2023-02-19T22:53:46.222Z,7.89
2023-02-19T22:56:14.716Z,7.85
2023-02-19T22:58:42.078Z,7.90
2023-02-19T23:01:09.779Z,7.93
2023-02-19T23:03:49.085Z,7.87
2023-02-19T23:06:17.733Z,7.95
2023-02-19T23:08:44.468Z,7.83
2023-02-19T23:11:12.478Z,7.78
2023-02-19T23:13:42.278Z,7.79
2023-02-19T23:16:09.206Z,7.85
2023-02-19T23:18:36.068Z,7.75
2023-02-19T23:21:02.692Z,7.76
2023-02-19T23:23:29.282Z,7.72
2023-02-19T23:25:55.942Z,7.76
2023-02-19T23:28:22.537Z,7.74
2023-02-19T23:30:49.331Z,7.74
2023-02-19T23:33:16.092Z,7.62
2023-02-19T23:35:42.689Z,7.67
2023-02-19T23:38:09.836Z,7.70
2023-02-19T23:40:36.545Z,7.87
2023-02-19T23:43:03.381Z,7.87
2023-02-19T23:45:30.134Z,7.67
2023-02-19T23:47:56.804Z,7.69
2023-02-19T23:50:23.478Z,7.75
2023-02-19T23:52:50.161Z,7.69
2023-02-19T23:55:16.738Z,7.67
2023-02-19T23:57:43.351Z,7.70
